Time;durP1;ratioP1;P1;durP2;ratioP2;P2;SDS_P1;SDS_P2;PMS_P1;PMS_P2;Temp;Humidity;BMP_temperature;BMP_pressure;BME280_temperature;BME280_humidity;BME280_pressure;Samples;Min_cycle;Max_cycle;Signal;HPM_P1;HPM_P2
2023/01/16 00:00:50;;;;;;;7.45;1.02;;;2.30;99.90;;;;;;5042333;28;20028;-74
2023/01/16 00:03:15;;;;;;;3.08;0.70;;;2.30;99.90;;;;;;5043032;28;20031;-74
2023/01/16 00:05:42;;;;;;;3.85;0.98;;;2.40;99.90;;;;;;5040558;28;20104;-73
2023/01/16 00:08:08;;;;;;;4.78;1.05;;;2.60;99.90;;;;;;5039861;28;20083;-75
2023/01/16 00:10:34;;;;;;;3.33;0.82;;;2.60;99.90;;;;;;5041582;28;20428;-73
2023/01/16 00:12:59;;;;;;;3.47;0.98;;;2.70;99.90;;;;;;5040522;28;20139;-73
2023/01/16 00:15:25;;;;;;;6.05;0.70;;;2.80;99.90;;;;;;5040773;28;20425;-73
2023/01/16 00:17:51;;;;;;;7.35;0.80;;;2.90;99.90;;;;;;5040818;28;20101;-74
2023/01/16 00:20:17;;;;;;;2.92;1.20;;;2.90;99.90;;;;;;5037129;28;20025;-74
2023/01/16 00:22:42;;;;;;;3.42;0.57;;;3.00;99.90;;;;;;5042367;28;20488;-73
2023/01/16 00:25:08;;;;;;;4.68;0.95;;;3.00;99.90;;;;;;5051790;28;20029;-74
2023/01/16 00:27:34;;;;;;;2.00;0.82;;;3.00;99.90;;;;;;5050816;28;20040;-74
2023/01/16 00:29:59;;;;;;;5.35;0.60;;;3.00;99.90;;;;;;5051107;28;20104;-74
2023/01/16 00:32:25;;;;;;;4.03;0.65;;;3.10;99.90;;;;;;5050106;28;20033;-74
2023/01/16 00:34:51;;;;;;;3.33;0.60;;;3.10;99.90;;;;;;5051669;28;20128;-74
2023/01/16 00:37:16;;;;;;;2.17;0.60;;;3.20;99.90;;;;;;5051934;28;20099;-74
2023/01/16 00:39:42;;;;;;;7.10;1.17;;;3.10;99.90;;;;;;5051767;28;20116;-74
2023/01/16 00:42:08;;;;;;;6.03;0.85;;;3.10;99.90;;;;;;5050795;28;20036;-74
2023/01/16 00:44:34;;;;;;;6.78;1.25;;;3.10;99.90;;;;;;5050291;28;20028;-74
2023/01/16 00:47:00;;;;;;;4.32;0.90;;;3.00;99.90;;;;;;5051824;28;20481;-74
2023/01/16 00:49:25;;;;;;;2.97;0.75;;;3.00;99.90;;;;;;5051109;28;20031;-75
2023/01/16 00:51:51;;;;;;;2.80;0.75;;;2.90;99.90;;;;;;5052342;28;20454;-73
2023/01/16 00:54:16;;;;;;;3.35;0.73;;;3.00;99.90;;;;;;5050997;28;20039;-73
2023/01/16 00:56:42;;;;;;;6.97;0.80;;;2.90;99.90;;;;;;5051891;28;20044;-73
2023/01/16 00:59:09;;;;;;;3.85;0.70;;;2.90;99.90;;;;;;5051041;28;20020;-73
2023/01/16 01:01:34;;;;;;;3.50;0.52;;;2.90;99.90;;;;;;5049731;28;20037;-73
2023/01/16 01:04:00;;;;;;;4.32;0.60;;;2.90;99.90;;;;;;5052051;28;20108;-73
2023/01/16 01:06:26;;;;;;;4.60;0.75;;;2.90;99.90;;;;;;5051190;28;20088;-74
2023/01/16 01:08:51;;;;;;;3.08;0.60;;;2.80;99.90;;;;;;5051337;28;20056;-73
2023/01/16 01:11:17;;;;;;;2.35;0.50;;;2.70;99.90;;;;;;5050888;28;20053;-73
2023/01/16 01:13:43;;;;;;;2.97;0.65;;;2.70;99.90;;;;;;5051552;28;20033;-74
2023/01/16 01:16:10;;;;;;;4.10;0.70;;;2.70;99.90;;;;;;5049965;28;20158;-74
2023/01/16 01:18:36;;;;;;;4.78;0.60;;;2.70;99.90;;;;;;5049395;28;20037;-73
2023/01/16 01:21:02;;;;;;;4.13;0.57;;;2.70;99.90;;;;;;5051821;28;20113;-73
2023/01/16 01:23:28;;;;;;;3.10;0.43;;;2.70;99.90;;;;;;5034569;28;20033;-73
2023/01/16 01:25:54;;;;;;;2.55;1.05;;;2.60;99.90;;;;;;5032067;28;20030;-73
2023/01/16 01:28:20;;;;;;;4.38;0.60;;;2.60;99.90;;;;;;5030252;28;20416;-73
2023/01/16 01:30:45;;;;;;;5.32;0.75;;;2.60;99.90;;;;;;5035925;28;20032;-73
2023/01/16 01:33:11;;;;;;;5.10;0.80;;;2.60;99.90;;;;;;5050532;28;20029;-74
2023/01/16 01:35:37;;;;;;;7.78;2.30;;;2.60;99.90;;;;;;5049977;28;20025;-73
2023/01/16 01:38:04;;;;;;;3.33;0.55;;;2.60;99.90;;;;;;5050360;28;20037;-73
2023/01/16 01:40:30;;;;;;;2.67;0.43;;;2.50;99.90;;;;;;5050934;28;20076;-72
2023/01/16 01:42:55;;;;;;;6.85;0.80;;;2.40;99.90;;;;;;5055420;28;20430;-73
2023/01/16 01:45:22;;;;;;;6.72;1.10;;;2.40;99.90;;;;;;5053962;28;20063;-73
2023/01/16 01:47:54;;;;;;;6.68;1.23;;;2.40;99.90;;;;;;5055680;28;20037;-73
2023/01/16 01:50:43;;;;;;;2.30;0.47;;;2.30;99.90;;;;;;5054292;28;20033;-73
2023/01/16 01:53:27;;;;;;;6.30;0.50;;;2.20;99.90;;;;;;5053731;28;20477;-73
2023/01/16 01:55:54;;;;;;;2.13;0.50;;;2.30;99.90;;;;;;5054122;28;20438;-73
2023/01/16 01:58:23;;;;;;;5.82;0.50;;;2.30;99.90;;;;;;5054305;28;20025;-73
2023/01/16 02:00:52;;;;;;;1.27;0.40;;;2.20;99.90;;;;;;5054169;28;20031;-73
2023/01/16 02:03:25;;;;;;;4.10;0.70;;;2.30;99.90;;;;;;5053715;28;20021;-74
2023/01/16 02:05:56;;;;;;;5.75;0.75;;;2.30;99.90;;;;;;5055702;28;20029;-73
2023/01/16 02:08:26;;;;;;;3.38;0.57;;;2.20;99.90;;;;;;5053776;28;20029;-73
2023/01/16 02:10:58;;;;;;;4.30;0.60;;;2.30;99.90;;;;;;5053531;28;20078;-73
2023/01/16 02:13:24;;;;;;;1.58;0.43;;;2.30;99.90;;;;;;5033709;28;20093;-73
2023/01/16 02:21:44;;;;;;;4.75;0.55;;;2.40;99.90;;;;;;5033896;28;20056;-73
2023/01/16 02:24:48;;;;;;;7.05;0.77;;;2.40;99.90;;;;;;5004958;28;20121;-74
2023/01/16 02:27:22;;;;;;;4.72;0.60;;;2.40;99.90;;;;;;5033735;28;20497;-73
2023/01/16 02:30:18;;;;;;;1.38;0.50;;;2.40;99.90;;;;;;5034621;28;20462;-73
2023/01/16 02:32:58;;;;;;;4.32;0.57;;;2.40;99.90;;;;;;5054300;28;20033;-73
2023/01/16 02:35:24;;;;;;;;;;;2.40;99.90;;;;;;5053462;28;20052;-73
2023/01/16 02:37:56;;;;;;;2.70;1.17;;;2.40;99.90;;;;;;5054709;28;20351;-73
2023/01/16 02:40:47;;;;;;;3.95;0.70;;;2.40;99.90;;;;;;5053550;28;20108;-73
2023/01/16 02:43:43;;;;;;;7.03;0.60;;;2.40;99.90;;;;;;5052063;28;20106;-73
2023/01/16 02:46:20;;;;;;;5.35;0.60;;;2.40;99.90;;;;;;5054225;28;20064;-77
2023/01/16 02:48:54;;;;;;;3.75;0.63;;;2.40;99.90;;;;;;5054115;28;20032;-73
2023/01/16 02:51:30;;;;;;;4.03;0.90;;;2.40;99.90;;;;;;5053525;28;20021;-73
2023/01/16 02:54:18;;;;;;;4.63;0.82;;;2.50;99.90;;;;;;5052902;28;20124;-73
2023/01/16 02:56:58;;;;;;;3.42;0.75;;;2.50;99.90;;;;;;5054338;28;20024;-73
2023/01/16 02:59:25;;;;;;;4.28;0.88;;;2.50;99.90;;;;;;5051525;28;20511;-73
2023/01/16 03:01:50;;;;;;;4.32;0.70;;;2.50;99.90;;;;;;5052860;28;20451;-73
2023/01/16 03:04:40;;;;;;;4.97;1.20;;;2.50;99.90;;;;;;5052804;28;20156;-73
2023/01/16 03:07:45;;;;;;;5.50;0.55;;;2.40;99.90;;;;;;5054191;28;20036;-73
2023/01/16 03:10:33;;;;;;;3.95;0.70;;;2.50;99.90;;;;;;5052721;28;20044;-74
2023/01/16 03:13:07;;;;;;;6.80;0.57;;;2.40;99.90;;;;;;5054220;28;20571;-73
2023/01/16 03:15:41;;;;;;;3.22;0.55;;;2.50;99.90;;;;;;5051666;28;20047;-74
2023/01/16 03:18:23;;;;;;;1.65;0.50;;;2.40;99.90;;;;;;5054045;28;20029;-73
2023/01/16 03:21:04;;;;;;;5.13;0.63;;;2.40;99.90;;;;;;5054025;28;20083;-74
2023/01/16 03:23:54;;;;;;;1.33;0.40;;;2.40;99.90;;;;;;5035094;28;20168;-73
2023/01/16 03:26:34;;;;;;;7.20;0.55;;;2.40;99.90;;;;;;5033557;28;20482;-75
2023/01/16 03:29:23;;;;;;;3.13;0.77;;;2.40;99.90;;;;;;5033361;28;20029;-73
2023/01/16 03:32:06;;;;;;;7.32;0.50;;;2.40;99.90;;;;;;5044951;28;20129;-74
2023/01/16 03:34:53;;;;;;;2.67;0.63;;;2.40;99.90;;;;;;5053185;28;20109;-74
2023/01/16 03:37:21;;;;;;;3.17;0.60;;;2.40;99.90;;;;;;5055722;28;20087;-74
2023/01/16 03:39:51;;;;;;;3.90;0.60;;;2.30;99.90;;;;;;5061626;28;20029;-73
2023/01/16 03:42:29;;;;;;;3.80;0.55;;;2.30;99.90;;;;;;5065683;28;20121;-73
2023/01/16 03:45:01;;;;;;;3.03;0.50;;;2.30;99.90;;;;;;5067469;28;20021;-73
2023/01/16 03:47:33;;;;;;;2.45;1.42;;;2.20;99.90;;;;;;5052822;28;20052;-73
2023/01/16 03:50:04;;;;;;;4.05;0.47;;;2.10;99.90;;;;;;5051720;28;20037;-72
2023/01/16 03:52:39;;;;;;;5.10;0.57;;;2.10;99.90;;;;;;5052627;28;20040;-73
2023/01/16 03:55:37;;;;;;;3.08;0.60;;;2.00;99.90;;;;;;5052866;28;20442;-74
2023/01/16 03:58:07;;;;;;;5.78;0.90;;;2.00;99.90;;;;;;5028268;28;20091;-73
2023/01/16 04:00:47;;;;;;;3.10;0.70;;;1.90;99.90;;;;;;5050764;28;20029;-73
2023/01/16 04:03:21;;;;;;;5.47;1.00;;;1.80;99.90;;;;;;5051527;28;20086;-74
2023/01/16 04:06:01;;;;;;;2.28;0.47;;;1.70;99.90;;;;;;5051894;28;20427;-73
2023/01/16 04:08:35;;;;;;;4.53;1.17;;;1.80;99.90;;;;;;5051684;28;20072;-74
2023/01/16 04:11:01;;;;;;;5.60;0.80;;;1.80;99.90;;;;;;5053053;28;20028;-73
2023/01/16 04:13:35;;;;;;;2.70;0.50;;;1.80;99.90;;;;;;5051407;28;20619;-73
2023/01/16 04:16:03;;;;;;;4.72;0.47;;;1.80;99.90;;;;;;5052465;28;20394;-73
2023/01/16 04:18:32;;;;;;;2.03;0.30;;;1.70;99.90;;;;;;5051447;28;20192;-73
2023/01/16 04:20:58;;;;;;;3.10;0.70;;;1.80;99.90;;;;;;5053244;28;20469;-73
2023/01/16 04:23:24;;;;;;;1.77;0.93;;;1.70;99.90;;;;;;5038629;28;20021;-74
2023/01/16 04:25:50;;;;;;;3.67;0.77;;;1.70;99.90;;;;;;5052638;28;20053;-73
2023/01/16 04:28:16;;;;;;;3.25;0.80;;;1.70;99.90;;;;;;5051018;28;20029;-73
2023/01/16 04:30:41;;;;;;;2.30;0.60;;;1.50;99.90;;;;;;5051062;28;20024;-73
2023/01/16 04:33:07;;;;;;;3.70;0.88;;;1.40;99.90;;;;;;5052229;28;20335;-75
2023/01/16 04:35:33;;;;;;;3.42;0.70;;;1.40;99.90;;;;;;5051608;28;20033;-73
2023/01/16 04:37:59;;;;;;;2.63;0.70;;;1.40;99.90;;;;;;5051829;28;20057;-74
2023/01/16 04:40:25;;;;;;;3.13;0.90;;;1.20;99.90;;;;;;5051010;28;20029;-73
2023/01/16 04:42:51;;;;;;;2.90;0.65;;;1.20;99.90;;;;;;5051868;28;20025;-73
2023/01/16 04:45:17;;;;;;;1.92;0.70;;;1.10;99.90;;;;;;5051200;28;20107;-73
2023/01/16 04:47:47;;;;;;;4.20;0.80;;;1.00;99.90;;;;;;5052170;28;20029;-74
2023/01/16 04:50:12;;;;;;;2.00;0.50;;;0.90;99.90;;;;;;5051220;28;20108;-74
2023/01/16 04:52:39;;;;;;;2.53;0.80;;;0.80;99.90;;;;;;5052030;28;20426;-73
2023/01/16 04:55:05;;;;;;;2.42;0.70;;;0.70;99.90;;;;;;5051830;28;20029;-73
2023/01/16 04:57:31;;;;;;;2.80;0.52;;;0.70;99.90;;;;;;5051533;28;20461;-73
2023/01/16 04:59:56;;;;;;;4.80;0.60;;;0.70;99.90;;;;;;5050523;28;20033;-74
2023/01/16 05:02:22;;;;;;;2.70;0.63;;;0.70;99.90;;;;;;5048927;28;20458;-73
2023/01/16 05:04:47;;;;;;;2.97;0.43;;;0.70;99.90;;;;;;5051547;28;20110;-74
2023/01/16 05:07:13;;;;;;;4.40;0.90;;;0.80;99.90;;;;;;5051167;28;20167;-74
2023/01/16 05:09:38;;;;;;;3.35;0.70;;;0.80;99.90;;;;;;5051498;28;20466;-74
2023/01/16 05:12:04;;;;;;;4.68;0.60;;;0.80;99.90;;;;;;5050572;28;20114;-73
2023/01/16 05:14:30;;;;;;;3.00;0.70;;;0.80;99.90;;;;;;5050327;28;20025;-73
2023/01/16 05:16:55;;;;;;;4.22;0.93;;;0.90;99.90;;;;;;5050046;28;20033;-73
2023/01/16 05:19:21;;;;;;;2.05;0.55;;;0.90;99.90;;;;;;5050719;28;20068;-73
2023/01/16 05:21:46;;;;;;;3.67;1.02;;;0.90;99.90;;;;;;5049885;28;20033;-74
2023/01/16 05:24:12;;;;;;;6.63;1.20;;;0.90;99.90;;;;;;5030918;28;20108;-75
2023/01/16 05:26:37;;;;;;;8.38;1.75;;;0.90;99.90;;;;;;5031782;28;20033;-74
2023/01/16 05:29:03;;;;;;;8.45;2.65;;;0.90;99.90;;;;;;5030450;28;20383;-75
2023/01/16 05:31:29;;;;;;;13.15;3.50;;;0.90;99.90;;;;;;5042870;28;20037;-74
2023/01/16 05:33:54;;;;;;;6.88;2.75;;;0.90;99.90;;;;;;5051647;28;20029;-75
2023/01/16 05:36:20;;;;;;;6.78;2.28;;;0.90;99.90;;;;;;5047971;28;20031;-75
2023/01/16 05:38:46;;;;;;;6.28;1.83;;;0.90;99.90;;;;;;5049695;28;20037;-76
2023/01/16 05:41:12;;;;;;;4.10;1.20;;;0.90;99.90;;;;;;5049875;28;20025;-74
2023/01/16 05:43:37;;;;;;;5.45;1.33;;;0.90;99.90;;;;;;5051047;28;20024;-75
2023/01/16 05:46:03;;;;;;;4.18;1.85;;;1.00;99.90;;;;;;5051548;28;20029;-75
2023/01/16 05:48:31;;;;;;;8.82;3.00;;;1.00;99.90;;;;;;5050076;28;20977;-77
2023/01/16 05:50:56;;;;;;;10.30;1.83;;;1.00;99.90;;;;;;5051667;28;20394;-75
2023/01/16 05:53:22;;;;;;;6.25;1.10;;;0.90;99.90;;;;;;5050371;28;20032;-75
2023/01/16 05:55:48;;;;;;;8.13;1.05;;;0.90;99.90;;;;;;5051708;28;20107;-76
2023/01/16 05:58:15;;;;;;;2.22;0.68;;;0.90;99.90;;;;;;5050414;28;20036;-74
2023/01/16 06:00:41;;;;;;;4.93;0.80;;;0.90;99.90;;;;;;5051737;28;20033;-75
2023/01/16 06:03:08;;;;;;;2.53;0.70;;;0.90;99.90;;;;;;5050880;28;20103;-74
2023/01/16 06:05:34;;;;;;;2.15;0.70;;;0.90;99.90;;;;;;5048690;28;20033;-75
2023/01/16 06:08:00;;;;;;;5.25;0.88;;;1.00;99.90;;;;;;5050999;28;20116;-75
2023/01/16 06:10:26;;;;;;;6.38;1.20;;;1.10;99.90;;;;;;5050462;28;20069;-75
2023/01/16 06:12:52;;;;;;;4.82;0.98;;;1.20;99.90;;;;;;5051577;28;20028;-75
2023/01/16 06:15:18;;;;;;;4.90;0.75;;;1.30;99.90;;;;;;5049741;28;20076;-75
2023/01/16 06:17:44;;;;;;;4.53;0.80;;;1.40;99.90;;;;;;5050919;28;20056;-75
2023/01/16 06:20:10;;;;;;;3.85;0.73;;;1.50;99.90;;;;;;5050805;28;20083;-74
2023/01/16 06:22:36;;;;;;;3.85;0.50;;;1.50;99.90;;;;;;5042290;28;20227;-76
2023/01/16 06:25:02;;;;;;;6.00;2.05;;;1.50;99.90;;;;;;5030604;28;20067;-76
2023/01/16 06:27:27;;;;;;;4.57;0.70;;;1.50;99.90;;;;;;5032760;28;20037;-77
2023/01/16 06:29:53;;;;;;;5.78;0.70;;;1.60;99.90;;;;;;5034942;28;20041;-77
2023/01/16 06:32:19;;;;;;;2.65;0.55;;;1.60;99.90;;;;;;5034145;28;20490;-76
2023/01/16 06:34:44;;;;;;;3.47;0.60;;;1.60;99.90;;;;;;5034829;28;20366;-77
2023/01/16 06:37:11;;;;;;;4.97;0.80;;;1.60;99.90;;;;;;5034363;28;20480;-76
2023/01/16 06:39:36;;;;;;;4.00;0.80;;;1.70;99.90;;;;;;5034252;28;20537;-77
2023/01/16 06:42:04;;;;;;;1.90;0.60;;;1.60;99.90;;;;;;5034714;28;20060;-77
2023/01/16 06:44:30;;;;;;;5.70;1.08;;;1.60;99.90;;;;;;5033419;28;20215;-79
2023/01/16 06:46:56;;;;;;;3.28;1.05;;;1.70;99.90;;;;;;5034572;28;20371;-77
2023/01/16 06:49:22;;;;;;;6.50;1.25;;;1.90;99.90;;;;;;5033330;28;20032;-75
2023/01/16 06:51:48;;;;;;;3.55;1.00;;;1.90;99.90;;;;;;5034929;28;20327;-77
2023/01/16 06:54:13;;;;;;;6.35;1.10;;;2.00;99.90;;;;;;5032993;28;20028;-74
2023/01/16 06:56:39;;;;;;;4.22;1.33;;;2.10;99.90;;;;;;5034124;28;20065;-76
2023/01/16 06:59:04;;;;;;;5.07;0.95;;;2.10;99.90;;;;;;5034067;28;20033;-75
2023/01/16 07:01:30;;;;;;;3.50;0.88;;;2.20;99.90;;;;;;5033766;28;20030;-78
2023/01/16 07:03:56;;;;;;;2.13;0.82;;;2.20;99.90;;;;;;5033441;28;20064;-78
2023/01/16 07:06:22;;;;;;;3.15;0.73;;;2.20;99.90;;;;;;5033645;28;20025;-77
2023/01/16 07:08:53;;;;;;;3.78;1.00;;;2.20;99.90;;;;;;5033676;28;20461;-74
2023/01/16 07:11:19;;;;;;;3.08;1.27;;;2.30;99.90;;;;;;5033512;28;20034;-74
2023/01/16 07:13:44;;;;;;;3.47;0.90;;;2.30;99.90;;;;;;5033301;28;20032;-74
2023/01/16 07:24:33;;;;;;;5.00;1.17;;;2.40;99.90;;;;;;5049784;28;20500;-72
2023/01/16 07:27:02;;;;;;;2.67;0.93;;;2.40;99.90;;;;;;5053819;28;20078;-74
2023/01/16 07:29:31;;;;;;;2.47;1.13;;;2.40;99.90;;;;;;5052136;28;20199;-74
2023/01/16 07:32:00;;;;;;;1.20;1.10;;;2.40;99.90;;;;;;5053028;28;20033;-74
2023/01/16 07:34:25;;;;;;;4.10;1.08;;;2.50;99.90;;;;;;5051668;28;20025;-74
2023/01/16 07:36:51;;;;;;;5.45;1.10;;;2.50;99.90;;;;;;5053234;28;20036;-74
2023/01/16 07:39:17;;;;;;;1.90;1.00;;;2.50;99.90;;;;;;5051313;28;20036;-73
2023/01/16 07:41:42;;;;;;;5.75;1.08;;;2.60;99.90;;;;;;5053003;28;20032;-75
2023/01/16 07:44:09;;;;;;;6.07;1.10;;;2.60;99.90;;;;;;5052062;28;20136;-76
2023/01/16 07:46:35;;;;;;;3.10;1.00;;;2.70;99.90;;;;;;5053488;28;20075;-74
2023/01/16 07:49:01;;;;;;;3.20;1.00;;;2.70;99.90;;;;;;5047227;28;20109;-75
2023/01/16 07:51:26;;;;;;;3.55;1.17;;;2.80;99.90;;;;;;5035560;28;20037;-73
2023/01/16 07:53:52;;;;;;;3.75;0.80;;;2.80;99.90;;;;;;5034208;28;20411;-74
2023/01/16 07:56:18;;;;;;;2.75;0.80;;;2.90;99.90;;;;;;5032149;28;20030;-74
2023/01/16 07:58:43;;;;;;;3.22;0.93;;;2.90;99.90;;;;;;5032886;28;20386;-75
2023/01/16 08:01:10;;;;;;;3.92;0.98;;;2.90;99.90;;;;;;5032808;28;20036;-74
2023/01/16 08:03:36;;;;;;;1.58;1.00;;;2.90;99.90;;;;;;5032125;28;20032;-75
2023/01/16 08:06:02;;;;;;;2.08;0.82;;;3.00;99.90;;;;;;5032588;28;20030;-73
2023/01/16 08:08:28;;;;;;;1.92;0.80;;;3.10;99.90;;;;;;5029848;28;20051;-73
2023/01/16 08:10:55;;;;;;;2.05;0.75;;;3.20;99.90;;;;;;5033010;28;20083;-74
2023/01/16 08:13:21;;;;;;;1.83;0.65;;;3.30;99.90;;;;;;5029955;28;20021;-74
2023/01/16 08:15:47;;;;;;;6.18;1.08;;;3.30;99.90;;;;;;5030726;28;20137;-75
2023/01/16 08:18:13;;;;;;;3.28;0.85;;;3.40;99.90;;;;;;5031030;28;20025;-76
2023/01/16 08:20:38;;;;;;;2.05;0.70;;;3.40;99.90;;;;;;5032357;28;20021;-74
2023/01/16 08:23:04;;;;;;;2.03;0.63;;;3.40;99.90;;;;;;5032508;28;20112;-74
2023/01/16 08:25:30;;;;;;;2.72;0.60;;;3.50;99.90;;;;;;5032785;28;20104;-73
2023/01/16 08:27:56;;;;;;;1.88;0.68;;;3.50;99.90;;;;;;5032517;28;20278;-73
2023/01/16 08:30:21;;;;;;;2.13;0.90;;;3.50;99.90;;;;;;5030147;28;20025;-74
2023/01/16 08:32:47;;;;;;;3.55;0.80;;;3.50;99.90;;;;;;5032769;28;20044;-74
2023/01/16 08:35:13;;;;;;;1.65;0.40;;;3.50;99.90;;;;;;5030402;28;20060;-75
2023/01/16 08:37:38;;;;;;;2.15;1.05;;;3.60;99.90;;;;;;5032451;28;20121;-74
2023/01/16 08:40:05;;;;;;;2.90;0.88;;;3.70;99.90;;;;;;5032614;28;20036;-74
2023/01/16 08:53:30;;;;;;;2.22;0.65;;;3.80;99.90;;;;;;5032993;28;20103;-73
2023/01/16 08:55:56;;;;;;;1.60;0.52;;;3.80;99.90;;;;;;5032825;28;20033;-74
2023/01/16 08:58:21;;;;;;;3.28;0.57;;;3.90;99.90;;;;;;5031854;28;20033;-73
2023/01/16 09:00:48;;;;;;;1.00;0.40;;;3.90;99.90;;;;;;5032169;28;20101;-75
2023/01/16 09:03:16;;;;;;;18.00;2.92;;;3.90;99.90;;;;;;5031060;28;20025;-76
2023/01/16 09:05:42;;;;;;;3.70;0.40;;;4.00;99.90;;;;;;5032093;28;20075;-74
2023/01/16 09:08:08;;;;;;;3.28;0.45;;;4.00;99.90;;;;;;5031746;28;20029;-75
2023/01/16 09:10:33;;;;;;;1.65;0.50;;;4.00;99.90;;;;;;5029887;28;20025;-74
2023/01/16 09:15:43;;;;;;;4.68;0.80;;;4.10;99.90;;;;;;5031563;28;20107;-74
2023/01/16 09:18:09;;;;;;;1.50;0.60;;;4.10;99.90;;;;;;5031641;28;20029;-75
2023/01/16 09:20:34;;;;;;;1.67;0.50;;;4.10;99.90;;;;;;5031131;28;20113;-75
2023/01/16 09:23:01;;;;;;;3.63;1.75;;;4.10;99.90;;;;;;5044068;28;20021;-75
2023/01/16 09:25:28;;;;;;;0.70;0.32;;;4.10;99.90;;;;;;5050798;28;20021;-75
2023/01/16 09:27:54;;;;;;;1.10;0.35;;;4.20;99.90;;;;;;5051583;28;20041;-75
2023/01/16 09:30:20;;;;;;;2.47;0.55;;;4.20;99.90;;;;;;5051409;28;20102;-75
2023/01/16 09:32:46;;;;;;;0.70;0.57;;;4.30;99.90;;;;;;5051618;28;20021;-74
2023/01/16 09:35:12;;;;;;;3.08;0.38;;;4.30;99.90;;;;;;5051087;28;20032;-75
2023/01/16 09:37:40;;;;;;;2.90;0.47;;;4.30;99.90;;;;;;5050179;28;20383;-74
2023/01/16 09:40:12;;;;;;;2.35;0.50;;;4.40;99.90;;;;;;5050972;28;20105;-75
2023/01/16 09:45:46;;;;;;;3.22;0.82;;;4.50;99.90;;;;;;5051183;28;20065;-74
2023/01/16 09:48:28;;;;;;;1.95;0.70;;;4.50;99.90;;;;;;5050700;28;20032;-75
2023/01/16 09:50:57;;;;;;;0.95;0.30;;;4.60;99.90;;;;;;5052140;28;20033;-73
2023/01/16 09:59:18;;;;;;;0.88;0.47;;;5.00;99.90;;;;;;5050141;28;20143;-75
2023/01/16 10:01:52;;;;;;;3.22;0.63;;;5.10;99.90;;;;;;5033007;28;20040;-73
2023/01/16 10:04:23;;;;;;;1.50;0.28;;;5.20;99.90;;;;;;5034202;28;20021;-75
2023/01/16 10:07:01;;;;;;;0.85;0.40;;;5.20;99.90;;;;;;5035871;28;20402;-75
2023/01/16 10:09:33;;;;;;;1.52;0.40;;;5.10;99.90;;;;;;5033892;28;20041;-75
2023/01/16 10:12:03;;;;;;;1.73;0.50;;;5.20;99.90;;;;;;5035801;28;20021;-75
2023/01/16 10:14:51;;;;;;;1.58;0.47;;;5.30;99.90;;;;;;5034611;28;20172;-74
2023/01/16 10:17:44;;;;;;;1.30;0.60;;;5.30;99.90;;;;;;5034729;28;20041;-75
2023/01/16 10:20:43;;;;;;;2.80;0.40;;;5.30;99.90;;;;;;5034642;28;20021;-76
2023/01/16 10:23:30;;;;;;;0.95;0.50;;;5.30;99.90;;;;;;5048983;28;20025;-76
2023/01/16 10:26:07;;;;;;;2.35;0.40;;;5.30;99.90;;;;;;5056096;28;20017;-74
2023/01/16 10:28:39;;;;;;;1.00;0.45;;;5.30;99.90;;;;;;5054134;28;20044;-75
2023/01/16 10:31:35;;;;;;;3.70;0.47;;;5.30;99.90;;;;;;5058746;28;20025;-75
2023/01/16 10:34:15;;;;;;;0.82;0.32;;;5.20;99.90;;;;;;5036674;28;20037;-74
2023/01/16 10:36:46;;;;;;;1.95;0.52;;;5.20;99.90;;;;;;5056314;28;20112;-75
2023/01/16 10:39:15;;;;;;;1.05;0.30;;;5.20;99.90;;;;;;5054029;28;20044;-76
2023/01/16 10:50:14;;;;;;;0.52;0.30;;;5.40;99.90;;;;;;5053909;28;20056;-75
2023/01/16 10:52:40;;;;;;;0.60;0.30;;;5.50;99.90;;;;;;5054756;28;20116;-75
2023/01/16 10:55:08;;;;;;;1.15;0.30;;;5.70;99.90;;;;;;5054570;28;20028;-75
2023/01/16 10:57:34;;;;;;;1.63;0.75;;;5.70;99.90;;;;;;5053676;28;20109;-75
2023/01/16 11:00:11;;;;;;;1.02;0.35;;;5.80;99.90;;;;;;5053940;28;20028;-75
2023/01/16 11:02:43;;;;;;;1.00;0.50;;;5.80;99.90;;;;;;5054488;28;20024;-73
2023/01/16 11:05:24;;;;;;;2.05;0.50;;;5.90;99.90;;;;;;5053827;28;20064;-75
2023/01/16 11:07:52;;;;;;;;;;;5.90;99.90;;;;;;5054175;28;20426;-74
2023/01/16 11:10:17;;;;;;;1.27;0.50;;;5.80;99.90;;;;;;5052812;28;20414;-76
2023/01/16 11:18:29;;;;;;;0.73;0.50;;;5.90;99.90;;;;;;5055581;28;20036;-74
2023/01/16 11:21:01;;;;;;;1.33;0.47;;;5.90;99.90;;;;;;5054559;28;20029;-75
2023/01/16 11:23:36;;;;;;;0.57;0.30;;;5.80;99.90;;;;;;5036928;28;20148;-74
2023/01/16 11:26:04;;;;;;;4.07;0.30;;;5.90;99.90;;;;;;5034094;28;20091;-74
2023/01/16 11:28:31;;;;;;;1.42;0.20;;;5.80;99.90;;;;;;5031841;28;20033;-74
2023/01/16 11:31:18;;;;;;;0.85;0.30;;;5.80;99.90;;;;;;5034097;28;20037;-75
2023/01/16 11:34:00;;;;;;;1.00;0.40;;;5.80;99.90;;;;;;5033500;28;20025;-73
2023/01/16 11:36:29;;;;;;;0.60;0.40;;;5.90;99.90;;;;;;5034766;28;20077;-76
2023/01/16 11:38:54;;;;;;;0.75;0.32;;;5.90;99.90;;;;;;5052819;28;20091;-74
2023/01/16 11:41:26;;;;;;;1.65;0.47;;;5.90;99.90;;;;;;5051681;28;20032;-74
2023/01/16 11:47:11;;;;;;;5.70;0.30;;;6.00;99.90;;;;;;5041090;28;20120;-73
2023/01/16 11:49:40;;;;;;;1.00;0.30;;;6.10;99.90;;;;;;5040475;28;20037;-74
2023/01/16 11:52:10;;;;;;;1.75;0.20;;;6.10;99.90;;;;;;5045037;28;20051;-78
2023/01/16 11:54:36;;;;;;;0.68;0.30;;;6.20;99.90;;;;;;5053072;28;20029;-76
2023/01/16 11:57:15;;;;;;;2.72;0.30;;;6.20;99.90;;;;;;5043425;28;20052;-77
2023/01/16 12:00:09;;;;;;;0.50;0.30;;;6.30;99.90;;;;;;5032799;28;20018;-76
2023/01/16 12:03:09;;;;;;;0.50;0.30;;;6.40;99.90;;;;;;5028108;28;20283;-75
2023/01/16 12:05:54;;;;;;;0.77;0.28;;;6.40;99.90;;;;;;5039361;28;20037;-76
2023/01/16 12:08:42;;;;;;;0.28;0.10;;;6.40;99.90;;;;;;5032697;28;20037;-76
2023/01/16 12:11:34;;;;;;;0.68;0.17;;;6.50;99.90;;;;;;5033854;28;20033;-76
2023/01/16 12:14:40;;;;;;;0.98;0.10;;;6.50;99.90;;;;;;5032429;28;20107;-77
2023/01/16 12:17:24;;;;;;;0.98;0.50;;;6.60;99.90;;;;;;5032494;28;20034;-76
2023/01/16 12:20:22;;;;;;;0.10;0.10;;;6.50;99.90;;;;;;5032743;28;20033;-76
2023/01/16 12:23:07;;;;;;;0.77;0.28;;;6.60;99.90;;;;;;5022252;28;20033;-76
2023/01/16 12:25:41;;;;;;;0.20;0.10;;;;;;;;;;5031688;28;20021;-77
2023/01/16 12:28:43;;;;;;;0.77;0.40;;;6.80;99.90;;;;;;5032099;28;20040;-77
2023/01/16 12:31:26;;;;;;;0.65;0.22;;;6.90;99.90;;;;;;5046086;28;20107;-76
2023/01/16 12:34:16;;;;;;;1.85;0.30;;;6.90;99.90;;;;;;5048357;28;20032;-75
2023/01/16 12:37:06;;;;;;;0.57;0.28;;;6.90;99.90;;;;;;5052270;28;20032;-77
2023/01/16 12:39:42;;;;;;;;;;;6.90;99.90;;;;;;5051089;28;20021;-75
2023/01/16 12:45:34;;;;;;;0.50;0.40;;;7.10;99.90;;;;;;5051444;28;20040;-76
2023/01/16 12:48:27;;;;;;;1.55;0.50;;;7.20;99.90;;;;;;5052193;28;20112;-77
2023/01/16 12:51:01;;;;;;;0.55;0.20;;;7.30;99.90;;;;;;5051802;28;20490;-77
2023/01/16 12:53:38;;;;;;;0.52;0.30;;;7.30;99.90;;;;;;5050718;28;20359;-76
2023/01/16 12:56:19;;;;;;;0.60;0.28;;;7.30;99.90;;;;;;5051870;28;20021;-75
2023/01/16 12:58:57;;;;;;;2.75;0.20;;;7.40;99.90;;;;;;5051506;28;20073;-75
2023/01/16 13:01:30;;;;;;;0.30;0.10;;;7.40;99.90;;;;;;5050118;28;20029;-76
2023/01/16 13:04:21;;;;;;;2.47;0.25;;;7.40;99.90;;;;;;5051685;28;20032;-76
2023/01/16 13:06:58;;;;;;;0.40;0.15;;;7.40;99.90;;;;;;5052192;28;20108;-76
2023/01/16 13:09:49;;;;;;;0.43;0.10;;;7.40;99.90;;;;;;5051074;28;20117;-76
2023/01/16 13:15:13;;;;;;;1.98;0.20;;;7.50;99.90;;;;;;5050812;28;20064;-76
2023/01/16 13:17:45;;;;;;;0.30;0.17;;;7.60;99.90;;;;;;5051704;28;20055;-76
2023/01/16 13:20:14;;;;;;;0.30;0.20;;;7.60;99.90;;;;;;5050814;28;20377;-75
2023/01/16 13:22:58;;;;;;;2.03;0.20;;;7.70;99.90;;;;;;5040742;28;20040;-76
2023/01/16 13:25:36;;;;;;;0.13;0.10;;;7.70;99.90;;;;;;5030617;28;20034;-75
2023/01/16 13:28:30;;;;;;;1.02;0.20;;;7.80;99.90;;;;;;5031578;28;20126;-76
2023/01/16 13:30:58;;;;;;;0.55;0.30;;;7.80;99.90;;;;;;5024159;28;20114;-76
2023/01/16 13:33:29;;;;;;;0.43;0.30;;;8.00;99.90;;;;;;5030425;28;20030;-77
2023/01/16 13:36:06;;;;;;;0.90;0.25;;;8.00;99.90;;;;;;5031589;28;20029;-76
2023/01/16 13:39:05;;;;;;;0.30;0.30;;;;;;;;;;5030574;28;20036;-76
2023/01/16 13:41:39;;;;;;;0.20;0.15;;;;;;;;;;4997340;28;20029;-77
2023/01/16 13:47:05;;;;;;;0.17;0.10;;;;;;;;;;5031995;28;20398;-75
2023/01/16 13:49:31;;;;;;;0.55;0.20;;;;;;;;;;5030745;28;20124;-76
2023/01/16 13:52:00;;;;;;;0.50;0.30;;;;;;;;;;5032747;28;20040;-76
2023/01/16 13:54:55;;;;;;;0.77;0.27;;;;;;;;;;5031332;28;20025;-76
2023/01/16 13:57:27;;;;;;;0.32;0.20;;;;;;;;;;5028163;28;20287;-75
2023/01/16 14:00:12;;;;;;;0.40;0.25;;;;;;;;;;5040493;28;20029;-77
2023/01/16 14:02:45;;;;;;;0.65;0.22;;;;;;;;;;5051687;28;20017;-76
2023/01/16 14:05:20;;;;;;;0.63;0.20;;;;;;;;;;5045427;28;20021;-76
2023/01/16 14:10:46;;;;;;;0.35;0.20;;;;;;;;;;5050427;28;20036;-76
2023/01/16 14:13:14;;;;;;;;;;;;;;;;;;5050982;28;20056;-76
2023/01/16 14:18:41;;;;;;;0.10;0.10;;;;;;;;;;5050297;28;20047;-76
2023/01/16 14:21:43;;;;;;;0.10;0.10;;;;;;;;;;5052703;28;20112;-75
2023/01/16 14:24:13;;;;;;;1.80;0.20;;;;;;;;;;5006816;28;20026;-76
2023/01/16 14:26:42;;;;;;;0.25;0.10;;;;;;;;;;5031301;28;20036;-75
2023/01/16 14:29:12;;;;;;;0.47;0.20;;;;;;;;;;5030974;28;20037;-76
2023/01/16 14:31:39;;;;;;;0.25;0.10;;;;;;;;;;5034253;28;20038;-75
2023/01/16 14:34:06;;;;;;;0.50;0.10;;;;;;;;;;5037232;28;20082;-76
2023/01/16 14:36:35;;;;;;;1.25;0.20;;;;;;;;;;5054563;28;20020;-77